Time;durP1;ratioP1;P1;durP2;ratioP2;P2;SDS_P1;SDS_P2;PMS_P1;PMS_P2;Temp;Humidity;BMP_temperature;BMP_pressure;BME280_temperature;BME280_humidity;BME280_pressure;Samples;Min_cycle;Max_cycle;Signal;HPM_P1;HPM_P2
2021/05/22 00:01:07;;;;;;;6.22;0.65;;;13.40;61.20;;;;;;4973496;28;20046;-79
2021/05/22 00:03:33;;;;;;;0.00;0.00;;;13.30;61.30;;;;;;4986904;28;20384;-80
2021/05/22 00:05:59;;;;;;;2.80;0.22;;;13.30;61.30;;;;;;4988481;28;20034;-79
2021/05/22 00:08:25;;;;;;;0.10;0.00;;;13.30;61.50;;;;;;4978520;28;20499;-80
2021/05/22 00:10:51;;;;;;;9.07;0.20;;;13.30;61.50;;;;;;4988296;28;20035;-79
2021/05/22 00:13:17;;;;;;;0.00;0.00;;;13.20;61.60;;;;;;4987441;28;20046;-80
2021/05/22 00:15:43;;;;;;;1.08;0.20;;;13.20;61.60;;;;;;4963756;28;20037;-80
2021/05/22 00:18:09;;;;;;;0.85;0.08;;;13.20;61.60;;;;;;5005614;28;20030;-80
2021/05/22 00:20:36;;;;;;;3.13;0.70;;;13.20;61.70;;;;;;5004774;28;20027;-80
2021/05/22 00:23:02;;;;;;;0.47;0.30;;;13.10;61.70;;;;;;4974299;28;20035;-80
2021/05/22 00:25:28;;;;;;;1.38;0.10;;;13.20;61.80;;;;;;4972441;28;20031;-80
2021/05/22 00:27:54;;;;;;;1.27;0.32;;;13.10;61.80;;;;;;4976380;28;20402;-80
2021/05/22 00:30:20;;;;;;;0.22;0.05;;;13.10;61.80;;;;;;4984143;28;20091;-80
2021/05/22 00:32:46;;;;;;;0.10;0.00;;;13.10;61.80;;;;;;4989110;28;20046;-80
2021/05/22 00:35:13;;;;;;;0.10;0.00;;;13.10;61.90;;;;;;4977553;28;20030;-80
2021/05/22 00:37:39;;;;;;;0.47;0.10;;;13.10;61.90;;;;;;4989157;28;20054;-80
2021/05/22 00:40:05;;;;;;;0.00;0.00;;;13.00;61.90;;;;;;4974773;28;20491;-80
2021/05/22 00:42:33;;;;;;;1.10;0.30;;;13.00;61.90;;;;;;4976985;28;20030;-80
2021/05/22 00:45:11;;;;;;;3.47;0.10;;;13.00;62.00;;;;;;4981969;28;20050;-80
2021/05/22 00:47:42;;;;;;;0.00;0.00;;;13.00;62.10;;;;;;5005983;28;20035;-80
2021/05/22 00:50:10;;;;;;;0.98;0.00;;;13.00;62.10;;;;;;4983916;28;20081;-80
2021/05/22 00:52:36;;;;;;;0.10;0.00;;;13.00;62.10;;;;;;5003392;28;20047;-81
2021/05/22 00:55:04;;;;;;;0.00;0.00;;;13.00;62.10;;;;;;4973760;28;20395;-80
2021/05/22 00:57:30;;;;;;;0.73;0.05;;;13.00;62.10;;;;;;4991912;28;20046;-80
2021/05/22 00:59:56;;;;;;;0.00;0.00;;;12.90;62.20;;;;;;4972222;28;20031;-80
2021/05/22 01:02:23;;;;;;;0.00;0.00;;;12.90;62.20;;;;;;4977451;28;20505;-81
2021/05/22 01:04:51;;;;;;;0.17;0.10;;;12.90;62.30;;;;;;4971893;28;20038;-80
2021/05/22 01:07:17;;;;;;;0.93;0.25;;;12.90;62.30;;;;;;4979850;28;20039;-80
2021/05/22 01:09:43;;;;;;;3.42;0.52;;;12.90;62.30;;;;;;4974556;28;20035;-80
2021/05/22 01:12:09;;;;;;;0.00;0.00;;;12.80;62.30;;;;;;4971242;28;20527;-79
2021/05/22 01:15:26;;;;;;;0.00;0.00;;;12.80;62.40;;;;;;5003964;28;20027;-80
2021/05/22 01:17:52;;;;;;;0.10;0.05;;;12.80;62.50;;;;;;4980712;28;20408;-80
2021/05/22 01:20:38;;;;;;;3.00;0.70;;;12.80;62.40;;;;;;4987178;28;20030;-80
2021/05/22 01:23:09;;;;;;;2.33;0.15;;;12.80;62.50;;;;;;4973604;28;20046;-80
2021/05/22 01:25:40;;;;;;;0.20;0.10;;;12.80;62.50;;;;;;4971600;28;20041;-80
2021/05/22 01:28:07;;;;;;;0.15;0.13;;;12.70;62.50;;;;;;4967827;28;20032;-80
2021/05/22 01:30:34;;;;;;;0.00;0.00;;;12.70;62.60;;;;;;4968727;28;20046;-80
2021/05/22 01:33:00;;;;;;;0.20;0.10;;;12.70;62.60;;;;;;4971048;28;20058;-79
2021/05/22 01:35:26;;;;;;;3.72;0.10;;;12.70;62.70;;;;;;4977679;28;20027;-80
2021/05/22 01:37:53;;;;;;;1.08;0.38;;;12.70;62.70;;;;;;4986135;28;20031;-80
2021/05/22 01:40:19;;;;;;;1.00;0.22;;;12.70;62.80;;;;;;4974176;28;20491;-79
2021/05/22 01:42:45;;;;;;;7.13;0.05;;;12.60;62.70;;;;;;4973345;28;20042;-80
2021/05/22 01:45:16;;;;;;;3.67;0.17;;;12.60;62.80;;;;;;4970026;28;20404;-80
2021/05/22 01:47:43;;;;;;;0.00;0.00;;;12.70;62.90;;;;;;4988004;28;20019;-80
2021/05/22 01:50:10;;;;;;;0.00;0.00;;;12.60;62.80;;;;;;4975120;28;20030;-79
2021/05/22 01:52:38;;;;;;;0.25;0.00;;;12.60;62.90;;;;;;4971368;28;20049;-80
2021/05/22 01:55:05;;;;;;;0.17;0.00;;;12.60;63.00;;;;;;4971383;28;20031;-80
2021/05/22 01:57:34;;;;;;;2.20;0.28;;;12.60;63.00;;;;;;4993934;28;20511;-79
2021/05/22 02:00:09;;;;;;;0.08;0.00;;;12.60;63.00;;;;;;4973891;28;20026;-79
2021/05/22 02:02:35;;;;;;;0.00;0.00;;;12.60;63.00;;;;;;4968311;28;20026;-80
2021/05/22 02:05:03;;;;;;;0.55;0.17;;;12.60;63.00;;;;;;4962737;28;20031;-80
2021/05/22 02:07:29;;;;;;;0.00;0.00;;;12.50;63.00;;;;;;4966293;28;20031;-79
2021/05/22 02:09:55;;;;;;;0.00;0.00;;;12.50;63.00;;;;;;4969708;28;20061;-80
2021/05/22 02:12:22;;;;;;;0.70;0.10;;;12.50;63.10;;;;;;4986336;28;20046;-79
2021/05/22 02:14:48;;;;;;;0.15;0.00;;;12.50;63.20;;;;;;4969179;28;20026;-80
2021/05/22 02:17:14;;;;;;;0.10;0.00;;;12.50;63.20;;;;;;4954722;28;20030;-80
2021/05/22 02:19:43;;;;;;;0.00;0.00;;;12.50;63.20;;;;;;4969430;28;20027;-79
2021/05/22 02:22:10;;;;;;;1.55;0.20;;;12.50;63.20;;;;;;4970029;28;20046;-78
2021/05/22 02:24:36;;;;;;;1.85;0.22;;;12.50;64.10;;;;;;4986908;28;20029;-79
2021/05/22 02:27:03;;;;;;;1.58;0.30;;;12.50;63.30;;;;;;4970384;28;20038;-79
2021/05/22 02:29:29;;;;;;;0.05;0.00;;;12.50;63.30;;;;;;4970275;28;20026;-79
2021/05/22 02:31:56;;;;;;;0.00;0.00;;;12.50;63.40;;;;;;4967246;28;20047;-79
2021/05/22 02:34:52;;;;;;;0.52;0.22;;;12.50;63.40;;;;;;4971087;28;20038;-79
2021/05/22 02:37:20;;;;;;;1.20;0.45;;;12.50;63.40;;;;;;4980140;28;20038;-80
2021/05/22 02:39:50;;;;;;;0.00;0.00;;;12.50;63.50;;;;;;4989800;28;20041;-79
2021/05/22 02:42:16;;;;;;;2.20;0.20;;;12.40;63.40;;;;;;4979416;28;20023;-79
2021/05/22 02:44:43;;;;;;;0.00;0.00;;;12.40;63.40;;;;;;4979071;28;20043;-79
2021/05/22 02:47:10;;;;;;;0.10;0.10;;;12.40;63.50;;;;;;4978335;28;20035;-79
2021/05/22 02:49:41;;;;;;;0.98;0.20;;;12.40;63.50;;;;;;4978849;28;20027;-79
2021/05/22 02:52:07;;;;;;;2.95;0.17;;;12.40;63.60;;;;;;4974337;28;20046;-79
2021/05/22 02:54:35;;;;;;;1.85;0.10;;;12.40;63.60;;;;;;4991086;28;20031;-79
2021/05/22 02:57:01;;;;;;;1.35;0.20;;;12.40;63.60;;;;;;4975256;28;20043;-80
2021/05/22 02:59:27;;;;;;;0.00;0.00;;;12.40;64.40;;;;;;4974757;28;20056;-78
2021/05/22 03:01:54;;;;;;;10.48;0.45;;;12.40;63.60;;;;;;4977677;28;20050;-80
2021/05/22 03:04:20;;;;;;;0.47;0.20;;;12.40;63.70;;;;;;5006961;28;20511;-80
2021/05/22 03:06:46;;;;;;;0.20;0.08;;;12.40;63.70;;;;;;4972151;28;20053;-79
2021/05/22 03:09:12;;;;;;;2.95;0.75;;;12.40;63.70;;;;;;5008783;28;20376;-80
2021/05/22 03:11:38;;;;;;;0.30;0.20;;;12.40;63.70;;;;;;4960737;28;20074;-80
2021/05/22 03:14:04;;;;;;;0.98;0.22;;;12.40;63.80;;;;;;5007213;28;20034;-80
2021/05/22 03:16:30;;;;;;;0.00;0.00;;;12.40;63.80;;;;;;4973317;28;20038;-80
2021/05/22 03:18:58;;;;;;;4.00;0.52;;;12.40;63.80;;;;;;4991014;28;20384;-80
2021/05/22 03:21:25;;;;;;;2.83;0.30;;;12.40;63.80;;;;;;4987927;28;20412;-80
2021/05/22 03:23:52;;;;;;;0.00;0.00;;;12.40;63.80;;;;;;4970289;28;20042;-80
2021/05/22 03:26:18;;;;;;;0.30;0.10;;;12.30;63.80;;;;;;4972695;28;20033;-79
2021/05/22 03:28:44;;;;;;;5.63;0.32;;;12.40;64.00;;;;;;4979261;28;20026;-80
2021/05/22 03:31:10;;;;;;;0.32;0.10;;;12.40;63.90;;;;;;4982543;28;20034;-80
2021/05/22 03:33:36;;;;;;;1.23;0.15;;;12.40;63.90;;;;;;4989366;28;20054;-80
2021/05/22 03:36:03;;;;;;;0.00;0.00;;;12.40;64.00;;;;;;4988632;28;20396;-81
2021/05/22 03:38:29;;;;;;;0.10;0.10;;;12.30;63.90;;;;;;4978304;28;20041;-79
2021/05/22 03:40:55;;;;;;;12.95;0.68;;;12.30;64.00;;;;;;4971315;28;20441;-80
2021/05/22 03:43:21;;;;;;;0.65;0.22;;;12.30;64.10;;;;;;4990993;28;20035;-80
2021/05/22 03:45:47;;;;;;;2.05;0.10;;;12.30;64.10;;;;;;4976057;28;20507;-80
2021/05/22 03:48:13;;;;;;;0.00;0.00;;;12.30;64.10;;;;;;5005523;28;20050;-80
2021/05/22 03:50:39;;;;;;;0.00;0.00;;;12.20;64.20;;;;;;4988484;28;20027;-80
2021/05/22 03:53:07;;;;;;;0.00;0.00;;;12.20;64.20;;;;;;4992803;28;20046;-80
2021/05/22 03:55:34;;;;;;;0.00;0.00;;;12.20;64.30;;;;;;4976925;28;20030;-79
2021/05/22 03:58:00;;;;;;;0.10;0.00;;;12.20;64.30;;;;;;4989898;28;20388;-80
2021/05/22 04:00:26;;;;;;;0.00;0.00;;;12.20;64.30;;;;;;4976880;28;20043;-80
2021/05/22 04:02:52;;;;;;;0.00;0.00;;;12.20;64.30;;;;;;4988953;28;20039;-79
2021/05/22 04:05:18;;;;;;;0.00;0.00;;;12.20;64.40;;;;;;4973905;28;20034;-80
2021/05/22 04:07:44;;;;;;;0.00;0.00;;;12.10;64.40;;;;;;4989579;28;20035;-78
2021/05/22 04:10:11;;;;;;;0.25;0.03;;;12.10;64.40;;;;;;4958509;28;20471;-79
2021/05/22 04:12:37;;;;;;;0.10;0.10;;;12.10;64.50;;;;;;4970823;28;20046;-80
2021/05/22 04:15:03;;;;;;;0.80;0.20;;;12.10;64.50;;;;;;4978353;28;20053;-80
2021/05/22 04:17:30;;;;;;;1.50;0.28;;;12.10;64.70;;;;;;4971062;28;20035;-80
2021/05/22 04:19:56;;;;;;;0.35;0.00;;;12.00;64.70;;;;;;4976700;28;20034;-80
2021/05/22 04:22:22;;;;;;;1.23;0.25;;;12.00;64.70;;;;;;4989596;28;20038;-80
2021/05/22 04:24:48;;;;;;;0.10;0.00;;;12.00;64.70;;;;;;4960992;28;20050;-80
2021/05/22 04:27:14;;;;;;;0.10;0.00;;;12.00;64.70;;;;;;4973307;28;20042;-80
2021/05/22 04:29:40;;;;;;;0.03;0.00;;;12.00;64.70;;;;;;4992416;28;20053;-80
2021/05/22 04:32:06;;;;;;;0.00;0.00;;;12.00;64.70;;;;;;4981221;28;20070;-80
2021/05/22 04:34:32;;;;;;;4.50;0.55;;;12.00;64.70;;;;;;4978982;28;20031;-79
2021/05/22 04:36:59;;;;;;;4.80;0.30;;;12.00;64.70;;;;;;4989460;28;20031;-79
2021/05/22 04:39:25;;;;;;;7.18;0.80;;;12.00;64.70;;;;;;4988437;28;20392;-79
2021/05/22 04:41:51;;;;;;;0.05;0.00;;;12.00;64.70;;;;;;4989091;28;20061;-78
2021/05/22 04:44:17;;;;;;;0.00;0.00;;;12.00;64.70;;;;;;4988966;28;20046;-80
2021/05/22 04:46:43;;;;;;;0.10;0.00;;;12.00;64.70;;;;;;5008603;28;20049;-79
2021/05/22 04:49:09;;;;;;;0.00;0.00;;;12.10;64.70;;;;;;4972896;28;20034;-79
2021/05/22 04:51:35;;;;;;;0.38;0.10;;;12.10;64.70;;;;;;4989362;28;20046;-78
2021/05/22 04:54:06;;;;;;;0.00;0.00;;;12.10;64.70;;;;;;4978045;28;20039;-79
2021/05/22 04:56:32;;;;;;;0.25;0.10;;;12.20;64.90;;;;;;4972712;28;20369;-79
2021/05/22 04:58:59;;;;;;;1.65;0.73;;;12.20;64.80;;;;;;4972665;28;20043;-78
2021/05/22 05:01:25;;;;;;;0.00;0.00;;;12.20;64.70;;;;;;4978143;28;20031;-80
2021/05/22 05:03:51;;;;;;;7.57;0.30;;;12.20;64.70;;;;;;4974584;28;20042;-80
2021/05/22 05:06:17;;;;;;;0.00;0.00;;;12.30;64.60;;;;;;4977550;28;20057;-79
2021/05/22 05:08:43;;;;;;;4.47;0.30;;;12.40;64.60;;;;;;4979885;28;20033;-79
2021/05/22 05:11:09;;;;;;;0.05;0.00;;;12.40;64.50;;;;;;4981808;28;20022;-80
2021/05/22 05:13:35;;;;;;;0.00;0.00;;;12.40;64.40;;;;;;4976394;28;20039;-85
2021/05/22 05:16:01;;;;;;;0.00;0.00;;;12.50;64.40;;;;;;4952638;28;20058;-81
2021/05/22 05:18:28;;;;;;;6.65;0.30;;;12.50;64.40;;;;;;4953610;28;20492;-81
2021/05/22 05:20:54;;;;;;;2.47;0.22;;;12.60;64.50;;;;;;4953490;28;20030;-81
2021/05/22 05:23:22;;;;;;;0.32;0.17;;;12.70;64.30;;;;;;4952945;28;20035;-81
2021/05/22 05:25:51;;;;;;;0.47;0.10;;;12.90;64.10;;;;;;4951701;28;20400;-80
2021/05/22 05:28:19;;;;;;;1.38;0.15;;;13.10;63.80;;;;;;4951938;29;20046;-81
2021/05/22 05:30:45;;;;;;;0.95;0.30;;;13.30;63.50;;;;;;4963969;28;20506;-81
2021/05/22 05:33:11;;;;;;;0.98;0.10;;;13.40;63.30;;;;;;4993872;28;20058;-80
2021/05/22 05:35:37;;;;;;;0.17;0.10;;;13.70;63.10;;;;;;4980544;28;20034;-81
2021/05/22 05:38:03;;;;;;;0.20;0.10;;;13.80;62.80;;;;;;4975115;28;20034;-81
2021/05/22 05:40:29;;;;;;;0.13;0.00;;;14.00;62.70;;;;;;4973191;28;20023;-81
2021/05/22 05:42:56;;;;;;;0.38;0.25;;;14.10;62.50;;;;;;4973204;28;20038;-81
2021/05/22 05:45:22;;;;;;;2.00;0.08;;;14.30;62.30;;;;;;4991281;28;20408;-81
2021/05/22 05:47:51;;;;;;;0.68;0.30;;;14.40;62.20;;;;;;4980928;28;20042;-81
2021/05/22 05:50:17;;;;;;;7.57;0.28;;;14.60;62.80;;;;;;4978975;28;20027;-81
2021/05/22 05:52:43;;;;;;;1.65;0.25;;;14.70;61.90;;;;;;4979699;28;20415;-81
2021/05/22 05:55:10;;;;;;;0.05;0.05;;;14.80;61.70;;;;;;4975762;28;20042;-81
2021/05/22 05:57:36;;;;;;;0.00;0.00;;;14.90;61.70;;;;;;4990103;28;20407;-81
2021/05/22 06:00:04;;;;;;;8.02;0.10;;;15.10;61.60;;;;;;4979083;28;20042;-80
2021/05/22 06:02:30;;;;;;;0.20;0.10;;;15.20;61.40;;;;;;4973859;28;20027;-81
2021/05/22 06:04:56;;;;;;;3.70;0.30;;;15.30;61.20;;;;;;4974063;28;20031;-81
2021/05/22 06:07:22;;;;;;;2.63;0.15;;;15.50;61.00;;;;;;4974325;28;20050;-81
2021/05/22 06:09:48;;;;;;;0.85;0.00;;;15.60;60.90;;;;;;4975664;28;20038;-81
2021/05/22 06:12:14;;;;;;;0.10;0.05;;;15.70;60.90;;;;;;4990603;28;20496;-81
2021/05/22 06:14:45;;;;;;;0.20;0.00;;;15.70;60.70;;;;;;4974794;28;20023;-81
2021/05/22 06:17:11;;;;;;;4.03;0.25;;;15.80;60.70;;;;;;4985676;28;20046;-82
2021/05/22 06:19:37;;;;;;;0.10;0.10;;;15.90;60.80;;;;;;4989361;28;20026;-81
2021/05/22 06:22:03;;;;;;;0.85;0.20;;;16.00;60.60;;;;;;4974819;28;20476;-82
2021/05/22 06:24:30;;;;;;;0.43;0.10;;;16.10;60.50;;;;;;5011289;28;20027;-79
2021/05/22 06:26:57;;;;;;;3.10;0.40;;;16.20;60.30;;;;;;4978366;28;20046;-79
2021/05/22 06:29:23;;;;;;;3.03;0.52;;;16.30;60.20;;;;;;4982221;28;20042;-80
2021/05/22 06:31:49;;;;;;;0.10;0.00;;;16.40;60.10;;;;;;4973108;28;20043;-81
2021/05/22 06:34:16;;;;;;;0.47;0.00;;;16.40;59.90;;;;;;4971343;28;20039;-83
2021/05/22 06:36:42;;;;;;;1.50;0.32;;;16.50;59.90;;;;;;4986450;28;20040;-82
2021/05/22 06:39:08;;;;;;;0.35;0.13;;;16.60;59.90;;;;;;4976824;28;20038;-81
2021/05/22 06:41:34;;;;;;;0.10;0.00;;;16.60;59.80;;;;;;4975280;28;20046;-82
2021/05/22 06:44:00;;;;;;;1.65;0.13;;;16.70;59.70;;;;;;4976374;28;20046;-82
2021/05/22 06:48:52;;;;;;;0.80;0.10;;;17.00;59.40;;;;;;4981534;28;20039;-81
2021/05/22 06:51:18;;;;;;;0.22;0.10;;;17.10;59.20;;;;;;4987913;28;20026;-82
2021/05/22 06:53:45;;;;;;;0.90;0.00;;;17.20;59.00;;;;;;4986805;28;20039;-82
2021/05/22 06:56:11;;;;;;;3.30;0.10;;;17.30;58.90;;;;;;4976880;28;20042;-81
2021/05/22 06:58:37;;;;;;;3.47;0.10;;;17.40;58.90;;;;;;4990293;28;20034;-81
2021/05/22 07:01:03;;;;;;;0.40;0.25;;;17.50;58.80;;;;;;4972346;28;20049;-81
2021/05/22 07:03:29;;;;;;;0.00;0.00;;;17.70;58.70;;;;;;4985611;28;20393;-84
2021/05/22 07:05:57;;;;;;;0.20;0.00;;;17.80;58.40;;;;;;4974238;28;20034;-81
2021/05/22 07:08:23;;;;;;;0.00;0.00;;;17.90;58.20;;;;;;4976056;28;20039;-80
2021/05/22 07:10:50;;;;;;;14.15;0.45;;;17.90;58.20;;;;;;4986696;28;20023;-81
2021/05/22 07:13:17;;;;;;;2.78;0.20;;;17.80;58.40;;;;;;4971263;28;20392;-82
2021/05/22 07:15:43;;;;;;;4.85;0.20;;;17.60;58.70;;;;;;4976805;28;20031;-80
2021/05/22 07:18:09;;;;;;;0.35;0.05;;;17.20;59.00;;;;;;4977411;28;20042;-81
2021/05/22 07:20:35;;;;;;;0.43;0.08;;;16.90;59.50;;;;;;4982510;28;20053;-81
2021/05/22 07:23:01;;;;;;;6.95;0.68;;;16.60;59.90;;;;;;4983083;28;20030;-83
2021/05/22 07:25:27;;;;;;;3.47;0.30;;;16.30;60.40;;;;;;4986842;28;20023;-82
2021/05/22 07:27:54;;;;;;;0.13;0.10;;;16.10;60.70;;;;;;4975569;28;20031;-83
2021/05/22 07:30:20;;;;;;;0.20;0.05;;;16.00;61.70;;;;;;4986503;28;20042;-81
2021/05/22 07:32:46;;;;;;;0.00;0.00;;;16.00;61.00;;;;;;4986273;28;20054;-83
2021/05/22 07:35:13;;;;;;;0.32;0.00;;;16.20;60.50;;;;;;4977742;28;20014;-82
2021/05/22 07:37:39;;;;;;;0.55;0.00;;;16.40;59.90;;;;;;4986381;28;20031;-80
2021/05/22 07:40:06;;;;;;;0.05;0.03;;;16.80;59.40;;;;;;4987145;28;20038;-80
2021/05/22 07:42:32;;;;;;;0.00;0.00;;;17.10;58.90;;;;;;4977210;28;20396;-80
2021/05/22 07:44:59;;;;;;;0.32;0.00;;;17.40;58.40;;;;;;4976544;28;20042;-83
2021/05/22 07:47:25;;;;;;;0.10;0.00;;;17.80;58.00;;;;;;4985470;28;20034;-82
2021/05/22 07:49:51;;;;;;;2.75;0.10;;;18.10;57.70;;;;;;4975321;28;20043;-82
2021/05/22 07:52:18;;;;;;;0.95;0.10;;;18.40;57.30;;;;;;4986523;28;20093;-81
2021/05/22 07:54:47;;;;;;;0.10;0.03;;;18.70;57.00;;;;;;4957339;28;20043;-81
2021/05/22 07:57:14;;;;;;;1.45;0.22;;;18.80;56.80;;;;;;4986146;28;20026;-86
2021/05/22 07:59:40;;;;;;;1.35;0.10;;;19.00;56.60;;;;;;4987507;28;20034;-81
2021/05/22 08:02:07;;;;;;;0.25;0.10;;;19.20;56.40;;;;;;4996882;28;20030;-82
2021/05/22 08:04:33;;;;;;;0.10;0.00;;;19.40;56.20;;;;;;4988801;28;20023;-81
2021/05/22 08:06:59;;;;;;;1.20;0.10;;;19.60;56.00;;;;;;4957530;28;20042;-82
2021/05/22 08:09:25;;;;;;;1.25;0.05;;;19.70;55.90;;;;;;4988613;28;20043;-82
2021/05/22 08:11:51;;;;;;;8.25;0.22;;;19.70;55.80;;;;;;4989247;28;20023;-82
2021/05/22 08:14:17;;;;;;;0.15;0.05;;;19.70;55.80;;;;;;4973153;28;20038;-82
2021/05/22 08:16:44;;;;;;;8.10;0.57;;;19.70;56.60;;;;;;4972812;28;20030;-82
2021/05/22 08:19:11;;;;;;;0.00;0.00;;;19.50;56.10;;;;;;4989786;28;20038;-91
2021/05/22 08:21:37;;;;;;;1.52;0.30;;;19.60;56.10;;;;;;4988712;28;20022;-84
2021/05/22 08:24:04;;;;;;;0.00;0.00;;;19.70;55.90;;;;;;4972107;28;20039;-87
2021/05/22 08:26:30;;;;;;;0.20;0.00;;;19.90;55.60;;;;;;4974521;28;20031;-85
2021/05/22 08:28:56;;;;;;;0.55;0.22;;;20.00;55.40;;;;;;4972168;28;20034;-84
2021/05/22 08:31:22;;;;;;;0.08;0.00;;;20.00;55.20;;;;;;4953251;28;20031;-84
2021/05/22 08:33:49;;;;;;;3.72;0.35;;;20.20;55.10;;;;;;4955605;28;20526;-85
2021/05/22 08:36:15;;;;;;;0.08;0.00;;;20.20;54.90;;;;;;4975946;28;20047;-87
2021/05/22 08:38:41;;;;;;;0.90;0.15;;;20.40;54.80;;;;;;4975826;28;20022;-84
2021/05/22 08:41:07;;;;;;;3.03;0.13;;;20.60;54.50;;;;;;4987026;28;20038;-86
2021/05/22 08:43:33;;;;;;;2.70;0.20;;;20.70;54.20;;;;;;4972263;28;21685;-85
2021/05/22 08:45:59;;;;;;;0.90;0.10;;;20.80;54.00;;;;;;4972511;28;20480;-86
2021/05/22 08:48:26;;;;;;;0.90;0.25;;;20.90;53.90;;;;;;4970676;28;20058;-88
2021/05/22 08:50:52;;;;;;;0.32;0.10;;;20.70;54.00;;;;;;4952059;28;20058;-88
2021/05/22 08:53:19;;;;;;;0.45;0.10;;;20.50;54.30;;;;;;4964654;28;20043;-84
2021/05/22 08:55:45;;;;;;;0.00;0.00;;;20.20;54.60;;;;;;4973660;28;20034;-78
2021/05/22 08:58:11;;;;;;;0.20;0.10;;;19.90;54.90;;;;;;4968815;28;20031;-79
2021/05/22 09:00:40;;;;;;;0.60;0.13;;;19.60;55.40;;;;;;4987062;28;20031;-79
2021/05/22 09:03:07;;;;;;;0.52;0.20;;;19.10;55.90;;;;;;4984238;28;20042;-80
2021/05/22 09:05:33;;;;;;;0.08;0.00;;;18.60;56.80;;;;;;4986307;28;20039;-81
2021/05/22 09:08:05;;;;;;;0.98;0.10;;;17.90;57.50;;;;;;4970573;28;20503;-80
2021/05/22 09:10:35;;;;;;;0.00;0.00;;;17.50;58.20;;;;;;4981277;28;20059;-78
2021/05/22 09:13:05;;;;;;;0.55;0.10;;;17.20;58.60;;;;;;4986977;28;20030;-78
2021/05/22 09:15:33;;;;;;;0.20;0.20;;;17.00;58.80;;;;;;4983350;28;20019;-81
2021/05/22 09:18:01;;;;;;;0.00;0.00;;;16.90;58.90;;;;;;5004398;28;20042;-80
2021/05/22 09:20:34;;;;;;;2.05;0.10;;;16.80;59.00;;;;;;4979160;28;20380;-79
2021/05/22 09:23:02;;;;;;;0.80;0.10;;;16.80;59.00;;;;;;4979799;28;20029;-78
2021/05/22 09:25:33;;;;;;;8.00;0.10;;;16.80;59.00;;;;;;4974821;28;20034;-80
2021/05/22 09:27:59;;;;;;;0.80;0.03;;;17.00;58.80;;;;;;4978730;28;20022;-78
2021/05/22 09:30:27;;;;;;;0.00;0.00;;;17.30;58.40;;;;;;4972951;28;20038;-81
2021/05/22 09:32:53;;;;;;;0.17;0.00;;;17.60;58.00;;;;;;4982750;28;20050;-82
2021/05/22 09:35:20;;;;;;;0.17;0.17;;;17.90;57.60;;;;;;4982571;28;20065;-86
2021/05/22 09:37:55;;;;;;;0.00;0.00;;;18.30;57.20;;;;;;4987879;28;20400;-82
2021/05/22 09:40:25;;;;;;;0.00;0.00;;;18.60;56.90;;;;;;4974400;28;20469;-82
2021/05/22 09:42:51;;;;;;;5.38;0.10;;;18.90;56.70;;;;;;4992992;28;20053;-82
2021/05/22 09:45:21;;;;;;;2.20;0.00;;;19.20;56.40;;;;;;4988390;28;20056;-80
2021/05/22 09:47:47;;;;;;;0.40;0.00;;;19.30;56.30;;;;;;5016685;28;20398;-80
2021/05/22 09:50:26;;;;;;;0.00;0.00;;;19.20;56.30;;;;;;4970779;28;22435;-79
2021/05/22 09:52:53;;;;;;;0.15;0.05;;;18.80;56.80;;;;;;4988589;28;20042;-79
2021/05/22 09:55:20;;;;;;;1.30;0.00;;;18.30;57.40;;;;;;4986966;28;20026;-82
2021/05/22 09:57:46;;;;;;;0.00;0.00;;;17.90;58.10;;;;;;4973992;28;20042;-80
2021/05/22 10:00:17;;;;;;;0.10;0.00;;;17.50;58.60;;;;;;4990941;28;20031;-84
2021/05/22 10:02:43;;;;;;;0.00;0.00;;;17.20;59.10;;;;;;4974418;28;20124;-80
2021/05/22 10:05:20;;;;;;;0.00;0.00;;;16.90;59.30;;;;;;4994450;28;20387;-80
2021/05/22 10:07:48;;;;;;;0.25;0.10;;;16.70;59.50;;;;;;4987178;28;20047;-80
2021/05/22 10:10:15;;;;;;;0.00;0.00;;;16.70;59.70;;;;;;4958055;28;20395;-78
2021/05/22 10:12:45;;;;;;;0.00;0.00;;;16.70;59.50;;;;;;4979013;28;20480;-80
2021/05/22 10:15:13;;;;;;;0.10;0.00;;;17.10;59.30;;;;;;4988462;28;20042;-80
2021/05/22 10:17:39;;;;;;;0.98;0.03;;;17.40;58.80;;;;;;4974976;28;20038;-80
2021/05/22 10:20:06;;;;;;;0.20;0.08;;;17.60;58.40;;;;;;4975263;28;20055;-79
2021/05/22 10:22:33;;;;;;;0.75;0.17;;;17.50;58.50;;;;;;4974154;28;20400;-80
2021/05/22 10:25:00;;;;;;;0.10;0.00;;;17.50;58.40;;;;;;4972800;28;20381;-80
2021/05/22 10:27:27;;;;;;;0.00;0.00;;;17.40;58.50;;;;;;4973624;28;20038;-80
2021/05/22 10:29:53;;;;;;;0.00;0.00;;;17.30;58.60;;;;;;4973165;28;20030;-81
2021/05/22 10:32:23;;;;;;;1.45;0.00;;;17.30;58.70;;;;;;4973423;28;20129;-80
2021/05/22 10:34:50;;;;;;;0.00;0.00;;;17.20;58.70;;;;;;4973333;28;20408;-79
2021/05/22 10:37:35;;;;;;;0.00;0.00;;;17.20;58.70;;;;;;4972221;28;20026;-79
2021/05/22 10:40:01;;;;;;;0.22;0.00;;;17.20;58.60;;;;;;4971780;28;20392;-80
2021/05/22 10:42:27;;;;;;;1.45;0.08;;;17.20;58.60;;;;;;4989806;28;20039;-80
2021/05/22 10:44:53;;;;;;;0.10;0.10;;;17.30;58.50;;;;;;4984130;28;20046;-80
2021/05/22 10:47:19;;;;;;;0.80;0.00;;;17.50;58.30;;;;;;4981170;28;20383;-80
2021/05/22 10:49:49;;;;;;;0.00;0.00;;;17.80;57.90;;;;;;4982413;28;20039;-81
2021/05/22 10:52:26;;;;;;;1.40;0.00;;;18.20;57.50;;;;;;4972492;28;20042;-82
2021/05/22 10:55:11;;;;;;;1.08;0.15;;;18.40;57.10;;;;;;4975733;28;20388;-82
2021/05/22 10:57:47;;;;;;;0.00;0.00;;;18.60;56.80;;;;;;5005564;28;20023;-82
2021/05/22 11:00:16;;;;;;;0.00;0.00;;;18.80;56.60;;;;;;5010242;28;20488;-80
2021/05/22 11:02:45;;;;;;;0.00;0.00;;;19.10;56.30;;;;;;4979747;28;20484;-81
2021/05/22 11:05:29;;;;;;;0.00;0.00;;;19.40;56.00;;;;;;4994509;28;20495;-81
2021/05/22 11:08:04;;;;;;;1.20;0.13;;;19.60;55.70;;;;;;4989201;28;20507;-80
2021/05/22 11:10:37;;;;;;;0.05;0.05;;;19.80;55.60;;;;;;4992633;28;20054;-81
2021/05/22 11:13:27;;;;;;;0.93;0.00;;;20.00;55.40;;;;;;4974952;28;25577;-81
2021/05/22 11:15:57;;;;;;;1.23;0.15;;;20.00;55.20;;;;;;4995412;28;20038;-80
2021/05/22 11:18:27;;;;;;;0.03;0.00;;;20.00;55.30;;;;;;4988785;28;20392;-80
2021/05/22 11:21:15;;;;;;;0.00;0.00;;;19.80;55.40;;;;;;4973459;28;20034;-80
2021/05/22 11:23:56;;;;;;;0.30;0.00;;;19.40;55.60;;;;;;4973638;28;20484;-80
2021/05/22 11:26:56;;;;;;;0.00;0.00;;;19.00;55.80;;;;;;4973484;28;20035;-80
2021/05/22 11:29:23;;;;;;;3.22;0.30;;;18.70;56.20;;;;;;4973187;28;20030;-81
2021/05/22 11:31:49;;;;;;;0.20;0.20;;;18.50;56.30;;;;;;4981416;28;20038;-81
2021/05/22 11:34:25;;;;;;;0.10;0.03;;;18.20;56.20;;;;;;4972456;28;20385;-81
2021/05/22 11:37:32;;;;;;;0.00;0.00;;;17.90;56.60;;;;;;4989834;28;20039;-81
2021/05/22 11:39:58;;;;;;;0.38;0.08;;;17.70;57.00;;;;;;4995891;28;20050;-81
2021/05/22 11:42:27;;;;;;;0.00;0.00;;;17.60;57.20;;;;;;4993393;28;20050;-80
2021/05/22 11:44:54;;;;;;;0.25;0.00;;;17.50;57.80;;;;;;4977148;28;20519;-81
2021/05/22 11:47:20;;;;;;;0.00;0.00;;;17.60;57.20;;;;;;4980327;28;20035;-81
2021/05/22 11:49:46;;;;;;;0.00;0.00;;;17.60;57.10;;;;;;4959565;28;20046;-81
2021/05/22 11:52:28;;;;;;;0.00;0.00;;;17.60;57.00;;;;;;4956776;28;20503;-81
2021/05/22 11:54:55;;;;;;;8.35;0.28;;;17.70;57.00;;;;;;4987288;28;20062;-81
2021/05/22 11:57:21;;;;;;;1.02;0.00;;;17.80;56.90;;;;;;4978143;28;20102;-81
2021/05/22 11:59:47;;;;;;;0.17;0.00;;;17.80;56.70;;;;;;4956947;28;20396;-81
2021/05/22 12:02:13;;;;;;;0.85;0.00;;;17.90;56.60;;;;;;4978339;28;20037;-81
2021/05/22 12:04:50;;;;;;;0.00;0.00;;;18.00;56.40;;;;;;4970781;28;20495;-80
2021/05/22 12:07:16;;;;;;;0.00;0.00;;;18.00;56.30;;;;;;4976940;28;20034;-81
2021/05/22 12:09:42;;;;;;;0.20;0.00;;;18.00;56.20;;;;;;4973142;28;20042;-81
2021/05/22 12:12:10;;;;;;;5.47;0.52;;;18.10;56.10;;;;;;4971534;28;20042;-81
2021/05/22 12:14:42;;;;;;;1.42;0.15;;;18.30;55.90;;;;;;4972369;28;20050;-81
2021/05/22 12:17:09;;;;;;;3.35;0.00;;;18.50;55.60;;;;;;4981809;28;20563;-80
2021/05/22 12:19:39;;;;;;;4.15;0.10;;;18.70;55.20;;;;;;4957608;28;20064;-81
2021/05/22 12:22:05;;;;;;;1.17;0.27;;;18.80;55.00;;;;;;4972089;28;20464;-81
2021/05/22 12:24:31;;;;;;;0.10;0.00;;;18.90;54.90;;;;;;5008465;28;20027;-81
2021/05/22 12:26:58;;;;;;;0.00;0.00;;;19.00;54.80;;;;;;5017304;28;20046;-81
2021/05/22 12:29:28;;;;;;;11.60;0.10;;;19.20;54.70;;;;;;4981339;28;20031;-82
2021/05/22 12:32:03;;;;;;;0.35;0.00;;;19.30;54.50;;;;;;4970447;28;20039;-82
2021/05/22 12:34:36;;;;;;;0.00;0.00;;;19.50;54.40;;;;;;4970766;28;20031;-82
2021/05/22 12:37:18;;;;;;;2.72;0.00;;;19.70;54.20;;;;;;4971429;28;20030;-81
2021/05/22 12:39:49;;;;;;;0.00;0.00;;;19.80;53.90;;;;;;4967811;28;20030;-81
2021/05/22 12:42:20;;;;;;;0.00;0.00;;;20.00;53.70;;;;;;4986987;28;20038;-82
2021/05/22 12:44:56;;;;;;;;;;;20.10;53.50;;;;;;4987015;28;20046;-81
2021/05/22 12:47:24;;;;;;;1.77;0.03;;;20.10;53.50;;;;;;4970468;28;19914;-81
2021/05/22 12:50:07;;;;;;;0.60;0.10;;;20.10;53.50;;;;;;4970692;28;20027;-80
2021/05/22 12:52:55;;;;;;;0.00;0.00;;;20.00;53.40;;;;;;4994808;28;20054;-81
2021/05/22 12:55:28;;;;;;;3.10;0.20;;;20.20;53.40;;;;;;4957023;28;20045;-81